sensor_id;sensor_type;location;lat;lon;timestamp;temperature;humidity
22558;DHT22;11445;53.816;8.902;2023-06-22T00:01:00;18.50;99.90
22558;DHT22;11445;53.816;8.902;2023-06-22T00:03:27;18.40;99.90
22558;DHT22;11445;53.816;8.902;2023-06-22T00:05:54;18.40;99.90
22558;DHT22;11445;53.816;8.902;2023-06-22T00:08:23;18.40;99.90
22558;DHT22;11445;53.816;8.902;2023-06-22T00:10:50;18.40;99.90
22558;DHT22;11445;53.816;8.902;2023-06-22T00:13:16;18.30;99.90
22558;DHT22;11445;53.816;8.902;2023-06-22T00:15:44;18.30;99.90
22558;DHT22;11445;53.816;8.902;2023-06-22T00:18:11;18.20;99.90
22558;DHT22;11445;53.816;8.902;2023-06-22T00:20:38;18.20;99.90
22558;DHT22;11445;53.816;8.902;2023-06-22T00:23:06;18.20;99.90
22558;DHT22;11445;53.816;8.902;2023-06-22T00:25:35;18.20;99.90
22558;DHT22;11445;53.816;8.902;2023-06-22T00:28:02;18.20;99.90
22558;DHT22;11445;53.816;8.902;2023-06-22T00:30:30;18.20;99.90
22558;DHT22;11445;53.816;8.902;2023-06-22T00:32:58;18.20;99.90
22558;DHT22;11445;53.816;8.902;2023-06-22T00:35:25;18.20;99.90
22558;DHT22;11445;53.816;8.902;2023-06-22T00:37:54;18.10;99.90
22558;DHT22;11445;53.816;8.902;2023-06-22T00:40:26;18.10;99.90
22558;DHT22;11445;53.816;8.902;2023-06-22T00:42:54;18.10;99.90
22558;DHT22;11445;53.816;8.902;2023-06-22T00:45:21;18.10;99.90
22558;DHT22;11445;53.816;8.902;2023-06-22T00:47:49;18.10;99.90
22558;DHT22;11445;53.816;8.902;2023-06-22T00:50:19;18.10;99.90
22558;DHT22;11445;53.816;8.902;2023-06-22T00:52:49;18.10;99.90
22558;DHT22;11445;53.816;8.902;2023-06-22T00:55:18;18.10;99.90
22558;DHT22;11445;53.816;8.902;2023-06-22T00:57:45;18.10;99.90
22558;DHT22;11445;53.816;8.902;2023-06-22T01:00:15;18.10;99.90
22558;DHT22;11445;53.816;8.902;2023-06-22T01:02:43;18.10;99.90
22558;DHT22;11445;53.816;8.902;2023-06-22T01:05:12;18.10;99.90
22558;DHT22;11445;53.816;8.902;2023-06-22T01:07:44;18.00;99.90
22558;DHT22;11445;53.816;8.902;2023-06-22T01:10:23;18.00;99.90
22558;DHT22;11445;53.816;8.902;2023-06-22T01:12:53;17.90;99.90
22558;DHT22;11445;53.816;8.902;2023-06-22T01:15:27;17.90;99.90
22558;DHT22;11445;53.816;8.902;2023-06-22T01:17:55;17.90;99.90
22558;DHT22;11445;53.816;8.902;2023-06-22T01:20:23;17.80;99.90
22558;DHT22;11445;53.816;8.902;2023-06-22T01:23:02;17.90;99.90
22558;DHT22;11445;53.816;8.902;2023-06-22T01:25:38;17.80;99.90
22558;DHT22;11445;53.816;8.902;2023-06-22T01:28:22;17.80;99.90
22558;DHT22;11445;53.816;8.902;2023-06-22T01:30:52;17.80;99.90
22558;DHT22;11445;53.816;8.902;2023-06-22T01:33:29;17.80;99.90
22558;DHT22;11445;53.816;8.902;2023-06-22T01:35:58;17.80;99.90
22558;DHT22;11445;53.816;8.902;2023-06-22T01:38:26;17.80;99.90
22558;DHT22;11445;53.816;8.902;2023-06-22T01:40:54;17.80;99.90
22558;DHT22;11445;53.816;8.902;2023-06-22T01:43:21;17.80;99.90
22558;DHT22;11445;53.816;8.902;2023-06-22T01:45:51;17.80;99.90
22558;DHT22;11445;53.816;8.902;2023-06-22T01:48:18;17.70;99.90
22558;DHT22;11445;53.816;8.902;2023-06-22T01:50:46;17.70;99.90
22558;DHT22;11445;53.816;8.902;2023-06-22T01:53:13;17.70;99.90
22558;DHT22;11445;53.816;8.902;2023-06-22T01:55:40;17.70;99.90
22558;DHT22;11445;53.816;8.902;2023-06-22T01:58:07;17.70;99.90
22558;DHT22;11445;53.816;8.902;2023-06-22T02:00:37;17.70;99.90
22558;DHT22;11445;53.816;8.902;2023-06-22T02:03:10;17.70;99.90
22558;DHT22;11445;53.816;8.902;2023-06-22T02:05:39;17.70;99.90
22558;DHT22;11445;53.816;8.902;2023-06-22T02:08:11;17.70;99.90
22558;DHT22;11445;53.816;8.902;2023-06-22T02:10:42;17.70;99.90
22558;DHT22;11445;53.816;8.902;2023-06-22T02:13:11;17.70;99.90
22558;DHT22;11445;53.816;8.902;2023-06-22T02:15:39;17.70;99.90
22558;DHT22;11445;53.816;8.902;2023-06-22T02:18:08;17.60;99.90
22558;DHT22;11445;53.816;8.902;2023-06-22T02:20:36;17.60;99.90
22558;DHT22;11445;53.816;8.902;2023-06-22T02:23:03;17.50;99.90
22558;DHT22;11445;53.816;8.902;2023-06-22T02:25:31;17.50;99.90
22558;DHT22;11445;53.816;8.902;2023-06-22T02:27:58;17.50;99.90
22558;DHT22;11445;53.816;8.902;2023-06-22T02:30:25;17.60;99.90
22558;DHT22;11445;53.816;8.902;2023-06-22T02:32:52;17.60;99.90
22558;DHT22;11445;53.816;8.902;2023-06-22T02:35:25;17.60;99.90
22558;DHT22;11445;53.816;8.902;2023-06-22T02:37:52;17.60;99.90
22558;DHT22;11445;53.816;8.902;2023-06-22T02:40:19;17.50;99.90
22558;DHT22;11445;53.816;8.902;2023-06-22T02:42:46;17.50;99.90
22558;DHT22;11445;53.816;8.902;2023-06-22T02:45:13;17.50;99.90
22558;DHT22;11445;53.816;8.902;2023-06-22T02:47:40;17.50;99.90
22558;DHT22;11445;53.816;8.902;2023-06-22T02:50:07;17.40;99.90
22558;DHT22;11445;53.816;8.902;2023-06-22T02:52:36;17.40;99.90
22558;DHT22;11445;53.816;8.902;2023-06-22T02:55:05;17.40;99.90
22558;DHT22;11445;53.816;8.902;2023-06-22T02:57:33;17.40;99.90
22558;DHT22;11445;53.816;8.902;2023-06-22T03:00:02;17.40;99.90
22558;DHT22;11445;53.816;8.902;2023-06-22T03:02:39;17.50;99.90
22558;DHT22;11445;53.816;8.902;2023-06-22T03:05:06;17.60;99.90
22558;DHT22;11445;53.816;8.902;2023-06-22T03:07:36;17.60;99.90
22558;DHT22;11445;53.816;8.902;2023-06-22T03:10:04;17.60;99.90
22558;DHT22;11445;53.816;8.902;2023-06-22T03:12:31;17.60;99.90
22558;DHT22;11445;53.816;8.902;2023-06-22T03:14:57;17.60;99.90
22558;DHT22;11445;53.816;8.902;2023-06-22T03:17:24;17.70;99.90
22558;DHT22;11445;53.816;8.902;2023-06-22T03:19:51;17.60;99.90
22558;DHT22;11445;53.816;8.902;2023-06-22T03:22:18;17.60;99.90
22558;DHT22;11445;53.816;8.902;2023-06-22T03:24:46;17.60;99.90
22558;DHT22;11445;53.816;8.902;2023-06-22T03:27:13;17.70;99.90
22558;DHT22;11445;53.816;8.902;2023-06-22T03:29:40;17.70;99.90
22558;DHT22;11445;53.816;8.902;2023-06-22T03:32:07;17.70;99.90
22558;DHT22;11445;53.816;8.902;2023-06-22T03:34:34;17.70;99.90
22558;DHT22;11445;53.816;8.902;2023-06-22T03:37:02;17.70;99.90
22558;DHT22;11445;53.816;8.902;2023-06-22T03:39:29;17.70;99.90
22558;DHT22;11445;53.816;8.902;2023-06-22T03:41:57;17.70;99.90
22558;DHT22;11445;53.816;8.902;2023-06-22T03:44:24;17.70;99.90
22558;DHT22;11445;53.816;8.902;2023-06-22T03:46:51;17.70;99.90
22558;DHT22;11445;53.816;8.902;2023-06-22T03:49:18;17.70;99.90
22558;DHT22;11445;53.816;8.902;2023-06-22T03:51:45;17.70;99.90
22558;DHT22;11445;53.816;8.902;2023-06-22T03:54:11;17.70;99.90
22558;DHT22;11445;53.816;8.902;2023-06-22T03:56:38;17.80;99.90
22558;DHT22;11445;53.816;8.902;2023-06-22T03:59:06;17.80;99.90
22558;DHT22;11445;53.816;8.902;2023-06-22T04:01:33;18.00;99.90
22558;DHT22;11445;53.816;8.902;2023-06-22T04:04:00;18.10;99.90
22558;DHT22;11445;53.816;8.902;2023-06-22T04:06:27;18.20;99.90
22558;DHT22;11445;53.816;8.902;2023-06-22T04:08:54;18.30;99.90
22558;DHT22;11445;53.816;8.902;2023-06-22T04:11:20;18.40;99.90
22558;DHT22;11445;53.816;8.902;2023-06-22T04:13:47;18.40;99.90
22558;DHT22;11445;53.816;8.902;2023-06-22T04:16:18;18.50;99.90
22558;DHT22;11445;53.816;8.902;2023-06-22T04:18:44;18.50;99.90
22558;DHT22;11445;53.816;8.902;2023-06-22T04:21:13;18.50;99.90
22558;DHT22;11445;53.816;8.902;2023-06-22T04:23:40;18.50;99.90
22558;DHT22;11445;53.816;8.902;2023-06-22T04:26:08;18.60;99.90
22558;DHT22;11445;53.816;8.902;2023-06-22T04:28:35;18.60;99.90
22558;DHT22;11445;53.816;8.902;2023-06-22T04:31:02;18.60;99.90
22558;DHT22;11445;53.816;8.902;2023-06-22T04:33:31;18.60;99.90
22558;DHT22;11445;53.816;8.902;2023-06-22T04:35:58;18.70;99.90
22558;DHT22;11445;53.816;8.902;2023-06-22T04:38:26;18.70;99.90
22558;DHT22;11445;53.816;8.902;2023-06-22T04:40:53;18.70;99.90
22558;DHT22;11445;53.816;8.902;2023-06-22T04:43:20;18.60;99.90
22558;DHT22;11445;53.816;8.902;2023-06-22T04:45:47;18.60;99.90
22558;DHT22;11445;53.816;8.902;2023-06-22T04:48:17;18.60;99.90
22558;DHT22;11445;53.816;8.902;2023-06-22T04:50:46;18.60;99.90
22558;DHT22;11445;53.816;8.902;2023-06-22T04:53:12;18.60;99.90
22558;DHT22;11445;53.816;8.902;2023-06-22T04:55:39;18.60;99.90
22558;DHT22;11445;53.816;8.902;2023-06-22T04:58:11;18.60;99.90
22558;DHT22;11445;53.816;8.902;2023-06-22T05:00:38;18.70;99.90
22558;DHT22;11445;53.816;8.902;2023-06-22T05:03:05;18.70;99.90
22558;DHT22;11445;53.816;8.902;2023-06-22T05:05:36;18.70;99.90
22558;DHT22;11445;53.816;8.902;2023-06-22T05:08:04;18.80;99.90
22558;DHT22;11445;53.816;8.902;2023-06-22T05:10:32;18.80;99.90
22558;DHT22;11445;53.816;8.902;2023-06-22T05:12:59;18.80;99.90
22558;DHT22;11445;53.816;8.902;2023-06-22T05:15:26;18.90;99.90
22558;DHT22;11445;53.816;8.902;2023-06-22T05:17:56;18.90;99.90
22558;DHT22;11445;53.816;8.902;2023-06-22T05:20:23;18.90;99.90
22558;DHT22;11445;53.816;8.902;2023-06-22T05:22:50;18.90;99.90
22558;DHT22;11445;53.816;8.902;2023-06-22T05:25:19;19.00;99.90
22558;DHT22;11445;53.816;8.902;2023-06-22T05:27:46;19.00;99.90
22558;DHT22;11445;53.816;8.902;2023-06-22T05:30:13;19.10;99.90
22558;DHT22;11445;53.816;8.902;2023-06-22T05:32:39;19.20;99.90
22558;DHT22;11445;53.816;8.902;2023-06-22T05:35:06;19.20;99.90
22558;DHT22;11445;53.816;8.902;2023-06-22T05:37:33;19.30;99.90
22558;DHT22;11445;53.816;8.902;2023-06-22T05:40:00;19.40;99.90
22558;DHT22;11445;53.816;8.902;2023-06-22T05:42:29;19.40;99.90
22558;DHT22;11445;53.816;8.902;2023-06-22T05:44:56;19.40;99.90
22558;DHT22;11445;53.816;8.902;2023-06-22T05:47:24;19.40;99.90
22558;DHT22;11445;53.816;8.902;2023-06-22T05:49:51;19.50;99.90
22558;DHT22;11445;53.816;8.902;2023-06-22T05:52:17;19.60;99.90
22558;DHT22;11445;53.816;8.902;2023-06-22T05:54:44;19.60;99.90
22558;DHT22;11445;53.816;8.902;2023-06-22T05:57:11;19.70;99.90
22558;DHT22;11445;53.816;8.902;2023-06-22T05:59:39;19.70;99.90
22558;DHT22;11445;53.816;8.902;2023-06-22T06:02:06;19.80;99.90
22558;DHT22;11445;53.816;8.902;2023-06-22T06:04:33;19.80;99.90
22558;DHT22;11445;53.816;8.902;2023-06-22T06:07:00;19.80;99.90
22558;DHT22;11445;53.816;8.902;2023-06-22T06:09:27;19.90;99.90
22558;DHT22;11445;53.816;8.902;2023-06-22T06:11:53;19.90;99.90
22558;DHT22;11445;53.816;8.902;2023-06-22T06:14:20;20.00;99.90
22558;DHT22;11445;53.816;8.902;2023-06-22T06:16:49;20.00;99.90
22558;DHT22;11445;53.816;8.902;2023-06-22T06:19:16;20.00;99.90
22558;DHT22;11445;53.816;8.902;2023-06-22T06:21:43;20.10;99.90
22558;DHT22;11445;53.816;8.902;2023-06-22T06:24:10;20.10;99.90
22558;DHT22;11445;53.816;8.902;2023-06-22T06:26:36;20.20;99.90
22558;DHT22;11445;53.816;8.902;2023-06-22T06:29:03;20.30;99.90
22558;DHT22;11445;53.816;8.902;2023-06-22T06:31:30;20.40;99.90
22558;DHT22;11445;53.816;8.902;2023-06-22T06:33:58;20.40;99.90
22558;DHT22;11445;53.816;8.902;2023-06-22T06:36:25;20.50;99.90
22558;DHT22;11445;53.816;8.902;2023-06-22T06:38:52;20.50;99.90
22558;DHT22;11445;53.816;8.902;2023-06-22T06:41:19;20.50;99.90
22558;DHT22;11445;53.816;8.902;2023-06-22T06:43:46;20.60;99.90
22558;DHT22;11445;53.816;8.902;2023-06-22T06:46:13;20.60;99.90
22558;DHT22;11445;53.816;8.902;2023-06-22T06:48:40;20.70;99.90
22558;DHT22;11445;53.816;8.902;2023-06-22T06:51:09;20.70;99.90
22558;DHT22;11445;53.816;8.902;2023-06-22T06:53:37;20.70;99.90
22558;DHT22;11445;53.816;8.902;2023-06-22T06:56:04;20.80;99.90
22558;DHT22;11445;53.816;8.902;2023-06-22T06:58:31;20.80;99.90
22558;DHT22;11445;53.816;8.902;2023-06-22T07:00:58;20.90;99.90
22558;DHT22;11445;53.816;8.902;2023-06-22T07:03:25;21.00;99.90
22558;DHT22;11445;53.816;8.902;2023-06-22T07:05:52;21.10;99.90
22558;DHT22;11445;53.816;8.902;2023-06-22T07:08:20;21.20;99.90
22558;DHT22;11445;53.816;8.902;2023-06-22T07:10:47;21.30;99.90
22558;DHT22;11445;53.816;8.902;2023-06-22T07:13:14;21.40;99.90
22558;DHT22;11445;53.816;8.902;2023-06-22T07:15:40;21.40;99.90
22558;DHT22;11445;53.816;8.902;2023-06-22T07:18:07;21.40;99.90
22558;DHT22;11445;53.816;8.902;2023-06-22T07:20:34;21.50;99.90
22558;DHT22;11445;53.816;8.902;2023-06-22T07:23:01;21.50;99.90
22558;DHT22;11445;53.816;8.902;2023-06-22T07:25:29;21.60;99.90
22558;DHT22;11445;53.816;8.902;2023-06-22T07:28:00;21.70;99.90
22558;DHT22;11445;53.816;8.902;2023-06-22T07:30:27;21.80;99.90
22558;DHT22;11445;53.816;8.902;2023-06-22T07:32:54;21.80;99.90
22558;DHT22;11445;53.816;8.902;2023-06-22T07:35:21;21.80;99.90
22558;DHT22;11445;53.816;8.902;2023-06-22T07:37:48;21.80;99.90
22558;DHT22;11445;53.816;8.902;2023-06-22T07:40:18;21.90;99.90
22558;DHT22;11445;53.816;8.902;2023-06-22T07:42:46;21.90;99.90
22558;DHT22;11445;53.816;8.902;2023-06-22T07:45:13;21.90;99.90
22558;DHT22;11445;53.816;8.902;2023-06-22T07:47:40;21.80;99.90
22558;DHT22;11445;53.816;8.902;2023-06-22T07:50:08;21.90;99.90
22558;DHT22;11445;53.816;8.902;2023-06-22T07:52:35;21.90;99.90
22558;DHT22;11445;53.816;8.902;2023-06-22T07:55:02;22.00;99.90
22558;DHT22;11445;53.816;8.902;2023-06-22T07:57:30;22.00;99.90
22558;DHT22;11445;53.816;8.902;2023-06-22T08:00:00;22.00;99.90
22558;DHT22;11445;53.816;8.902;2023-06-22T08:02:29;22.00;99.90
22558;DHT22;11445;53.816;8.902;2023-06-22T08:04:56;22.10;99.90
22558;DHT22;11445;53.816;8.902;2023-06-22T08:07:23;22.10;99.90
22558;DHT22;11445;53.816;8.902;2023-06-22T08:09:50;22.20;99.90
22558;DHT22;11445;53.816;8.902;2023-06-22T08:12:17;22.30;99.90
22558;DHT22;11445;53.816;8.902;2023-06-22T08:14:43;22.30;99.90
22558;DHT22;11445;53.816;8.902;2023-06-22T08:17:12;22.30;99.90
22558;DHT22;11445;53.816;8.902;2023-06-22T08:19:40;22.20;99.90
22558;DHT22;11445;53.816;8.902;2023-06-22T08:22:06;22.10;99.90
22558;DHT22;11445;53.816;8.902;2023-06-22T08:24:33;22.10;99.90
22558;DHT22;11445;53.816;8.902;2023-06-22T08:27:00;22.20;99.90
22558;DHT22;11445;53.816;8.902;2023-06-22T08:29:27;22.20;99.90
22558;DHT22;11445;53.816;8.902;2023-06-22T08:31:53;22.40;99.90
22558;DHT22;11445;53.816;8.902;2023-06-22T08:34:22;22.50;99.90
22558;DHT22;11445;53.816;8.902;2023-06-22T08:36:50;22.50;99.90
22558;DHT22;11445;53.816;8.902;2023-06-22T08:39:18;22.60;99.90
22558;DHT22;11445;53.816;8.902;2023-06-22T08:41:45;22.50;99.90
22558;DHT22;11445;53.816;8.902;2023-06-22T08:44:12;22.50;99.90
22558;DHT22;11445;53.816;8.902;2023-06-22T08:46:39;22.50;99.90
22558;DHT22;11445;53.816;8.902;2023-06-22T08:49:07;22.50;99.90
22558;DHT22;11445;53.816;8.902;2023-06-22T08:51:36;22.50;99.90
22558;DHT22;11445;53.816;8.902;2023-06-22T08:54:03;22.50;99.90
22558;DHT22;11445;53.816;8.902;2023-06-22T08:56:30;22.50;99.90
22558;DHT22;11445;53.816;8.902;2023-06-22T08:58:57;22.40;99.90
22558;DHT22;11445;53.816;8.902;2023-06-22T09:01:24;22.40;99.90
22558;DHT22;11445;53.816;8.902;2023-06-22T09:03:50;22.40;99.90
22558;DHT22;11445;53.816;8.902;2023-06-22T09:06:23;22.40;99.90
22558;DHT22;11445;53.816;8.902;2023-06-22T09:08:51;22.40;99.90
22558;DHT22;11445;53.816;8.902;2023-06-22T09:11:18;22.40;99.90
22558;DHT22;11445;53.816;8.902;2023-06-22T09:13:44;22.50;99.90
22558;DHT22;11445;53.816;8.902;2023-06-22T09:16:11;22.60;99.90
22558;DHT22;11445;53.816;8.902;2023-06-22T09:18:38;22.70;99.90
22558;DHT22;11445;53.816;8.902;2023-06-22T09:21:05;22.80;99.90
22558;DHT22;11445;53.816;8.902;2023-06-22T09:23:32;22.90;99.90
22558;DHT22;11445;53.816;8.902;2023-06-22T09:26:01;23.00;99.90
22558;DHT22;11445;53.816;8.902;2023-06-22T09:28:29;23.20;99.90
22558;DHT22;11445;53.816;8.902;2023-06-22T09:30:56;23.20;99.90
22558;DHT22;11445;53.816;8.902;2023-06-22T09:33:23;23.20;99.90
22558;DHT22;11445;53.816;8.902;2023-06-22T09:35:50;23.30;99.90
22558;DHT22;11445;53.816;8.902;2023-06-22T09:38:17;23.30;99.90
22558;DHT22;11445;53.816;8.902;2023-06-22T09:40:44;23.30;99.90
22558;DHT22;11445;53.816;8.902;2023-06-22T09:43:12;23.40;99.90
22558;DHT22;11445;53.816;8.902;2023-06-22T09:45:39;23.40;99.90
22558;DHT22;11445;53.816;8.902;2023-06-22T09:48:06;23.50;99.90
22558;DHT22;11445;53.816;8.902;2023-06-22T09:50:32;23.60;99.90
22558;DHT22;11445;53.816;8.902;2023-06-22T09:52:59;23.70;99.90
22558;DHT22;11445;53.816;8.902;2023-06-22T09:55:26;23.80;99.90
22558;DHT22;11445;53.816;8.902;2023-06-22T09:57:53;23.90;99.90
22558;DHT22;11445;53.816;8.902;2023-06-22T10:00:22;23.90;99.90
22558;DHT22;11445;53.816;8.902;2023-06-22T10:02:49;24.00;99.90
22558;DHT22;11445;53.816;8.902;2023-06-22T10:05:16;24.10;99.90
22558;DHT22;11445;53.816;8.902;2023-06-22T10:07:43;24.10;99.90
22558;DHT22;11445;53.816;8.902;2023-06-22T10:10:10;24.10;99.90
22558;DHT22;11445;53.816;8.902;2023-06-22T10:12:40;24.10;99.90
22558;DHT22;11445;53.816;8.902;2023-06-22T10:15:08;24.10;99.90
22558;DHT22;11445;53.816;8.902;2023-06-22T10:17:36;24.10;99.90
22558;DHT22;11445;53.816;8.902;2023-06-22T10:20:04;24.20;99.90
22558;DHT22;11445;53.816;8.902;2023-06-22T10:22:38;24.20;99.90
22558;DHT22;11445;53.816;8.902;2023-06-22T10:25:06;24.20;99.90
22558;DHT22;11445;53.816;8.902;2023-06-22T10:27:33;24.30;99.90
22558;DHT22;11445;53.816;8.902;2023-06-22T10:29:59;24.30;99.90
22558;DHT22;11445;53.816;8.902;2023-06-22T10:32:26;24.30;99.90
22558;DHT22;11445;53.816;8.902;2023-06-22T10:34:55;24.30;99.90
22558;DHT22;11445;53.816;8.902;2023-06-22T10:37:22;24.30;99.90
22558;DHT22;11445;53.816;8.902;2023-06-22T10:39:49;24.40;99.90
22558;DHT22;11445;53.816;8.902;2023-06-22T10:42:16;24.40;99.90
22558;DHT22;11445;53.816;8.902;2023-06-22T10:44:43;24.50;99.90
22558;DHT22;11445;53.816;8.902;2023-06-22T10:47:10;24.50;99.90
22558;DHT22;11445;53.816;8.902;2023-06-22T10:49:38;24.50;99.90
22558;DHT22;11445;53.816;8.902;2023-06-22T10:52:07;24.60;99.90
22558;DHT22;11445;53.816;8.902;2023-06-22T10:54:36;24.60;99.90
22558;DHT22;11445;53.816;8.902;2023-06-22T10:57:03;24.70;99.90
22558;DHT22;11445;53.816;8.902;2023-06-22T10:59:30;24.80;99.90
22558;DHT22;11445;53.816;8.902;2023-06-22T11:01:57;24.80;99.90
22558;DHT22;11445;53.816;8.902;2023-06-22T11:04:24;24.80;99.90
22558;DHT22;11445;53.816;8.902;2023-06-22T11:06:51;24.80;99.90
22558;DHT22;11445;53.816;8.902;2023-06-22T11:09:19;24.90;99.90
22558;DHT22;11445;53.816;8.902;2023-06-22T11:11:46;24.90;99.90
22558;DHT22;11445;53.816;8.902;2023-06-22T11:14:14;24.90;99.90
22558;DHT22;11445;53.816;8.902;2023-06-22T11:16:40;25.00;99.90
22558;DHT22;11445;53.816;8.902;2023-06-22T11:19:08;25.00;99.90
22558;DHT22;11445;53.816;8.902;2023-06-22T11:21:34;25.00;99.90
22558;DHT22;11445;53.816;8.902;2023-06-22T11:24:01;25.10;99.90
22558;DHT22;11445;53.816;8.902;2023-06-22T11:26:30;25.10;99.90
22558;DHT22;11445;53.816;8.902;2023-06-22T11:28:57;25.20;99.90
22558;DHT22;11445;53.816;8.902;2023-06-22T11:31:24;25.20;99.90
22558;DHT22;11445;53.816;8.902;2023-06-22T11:33:51;25.20;99.90
22558;DHT22;11445;53.816;8.902;2023-06-22T11:36:19;25.30;99.90
22558;DHT22;11445;53.816;8.902;2023-06-22T11:38:45;25.40;99.90
22558;DHT22;11445;53.816;8.902;2023-06-22T11:41:12;25.50;99.90
22558;DHT22;11445;53.816;8.902;2023-06-22T11:43:40;25.60;99.90
22558;DHT22;11445;53.816;8.902;2023-06-22T11:46:07;25.60;99.90
22558;DHT22;11445;53.816;8.902;2023-06-22T11:48:34;25.70;99.90
22558;DHT22;11445;53.816;8.902;2023-06-22T11:51:01;25.70;99.90
22558;DHT22;11445;53.816;8.902;2023-06-22T11:53:29;25.70;99.90
22558;DHT22;11445;53.816;8.902;2023-06-22T11:55:56;25.70;99.90
22558;DHT22;11445;53.816;8.902;2023-06-22T11:58:23;25.50;99.90
22558;DHT22;11445;53.816;8.902;2023-06-22T12:00:51;25.50;99.90
22558;DHT22;11445;53.816;8.902;2023-06-22T12:03:18;25.50;99.90
22558;DHT22;11445;53.816;8.902;2023-06-22T12:05:45;25.50;99.90
22558;DHT22;11445;53.816;8.902;2023-06-22T12:08:11;25.50;99.90
22558;DHT22;11445;53.816;8.902;2023-06-22T12:10:39;25.40;99.90
22558;DHT22;11445;53.816;8.902;2023-06-22T12:13:05;25.30;99.90
22558;DHT22;11445;53.816;8.902;2023-06-22T12:15:32;25.30;99.90
22558;DHT22;11445;53.816;8.902;2023-06-22T12:18:00;25.20;99.90
22558;DHT22;11445;53.816;8.902;2023-06-22T12:20:28;25.10;99.90
22558;DHT22;11445;53.816;8.902;2023-06-22T12:22:55;25.10;99.90
22558;DHT22;11445;53.816;8.902;2023-06-22T12:25:23;25.10;99.90
22558;DHT22;11445;53.816;8.902;2023-06-22T12:27:50;25.10;99.90
22558;DHT22;11445;53.816;8.902;2023-06-22T12:30:17;25.10;99.90
22558;DHT22;11445;53.816;8.902;2023-06-22T12:32:44;25.00;99.90
22558;DHT22;11445;53.816;8.902;2023-06-22T12:35:12;25.00;99.90
22558;DHT22;11445;53.816;8.902;2023-06-22T12:37:40;24.90;99.90
22558;DHT22;11445;53.816;8.902;2023-06-22T12:40:08;24.90;99.90
22558;DHT22;11445;53.816;8.902;2023-06-22T12:42:35;24.90;99.90
22558;DHT22;11445;53.816;8.902;2023-06-22T12:45:02;24.90;99.90
22558;DHT22;11445;53.816;8.902;2023-06-22T12:47:29;24.90;99.90
22558;DHT22;11445;53.816;8.902;2023-06-22T12:49:56;24.80;99.90
22558;DHT22;11445;53.816;8.902;2023-06-22T12:52:24;24.90;99.90
22558;DHT22;11445;53.816;8.902;2023-06-22T12:54:51;25.00;99.90
22558;DHT22;11445;53.816;8.902;2023-06-22T12:57:18;25.00;99.90
22558;DHT22;11445;53.816;8.902;2023-06-22T12:59:45;25.00;99.90
22558;DHT22;11445;53.816;8.902;2023-06-22T13:02:12;25.00;99.90
22558;DHT22;11445;53.816;8.902;2023-06-22T13:04:39;24.90;99.90
22558;DHT22;11445;53.816;8.902;2023-06-22T13:07:06;24.80;99.90
22558;DHT22;11445;53.816;8.902;2023-06-22T13:09:36;24.60;99.90
22558;DHT22;11445;53.816;8.902;2023-06-22T13:12:03;24.60;99.90
22558;DHT22;11445;53.816;8.902;2023-06-22T13:14:30;24.50;99.90
22558;DHT22;11445;53.816;8.902;2023-06-22T13:16:57;24.60;99.90
22558;DHT22;11445;53.816;8.902;2023-06-22T13:19:23;24.60;99.90
22558;DHT22;11445;53.816;8.902;2023-06-22T13:21:51;24.50;99.90
22558;DHT22;11445;53.816;8.902;2023-06-22T13:24:18;24.60;99.90
22558;DHT22;11445;53.816;8.902;2023-06-22T13:26:46;24.60;99.90
22558;DHT22;11445;53.816;8.902;2023-06-22T13:29:13;24.50;99.90
22558;DHT22;11445;53.816;8.902;2023-06-22T13:31:39;24.50;99.90
22558;DHT22;11445;53.816;8.902;2023-06-22T13:34:06;24.40;99.90
22558;DHT22;11445;53.816;8.902;2023-06-22T13:36:33;24.40;99.90
22558;DHT22;11445;53.816;8.902;2023-06-22T13:39:00;24.30;99.90
22558;DHT22;11445;53.816;8.902;2023-06-22T13:41:26;24.30;99.90
22558;DHT22;11445;53.816;8.902;2023-06-22T13:43:55;24.30;99.90
22558;DHT22;11445;53.816;8.902;2023-06-22T13:46:22;24.30;99.90
22558;DHT22;11445;53.816;8.902;2023-06-22T13:48:48;24.30;99.90
22558;DHT22;11445;53.816;8.902;2023-06-22T13:51:15;24.20;99.90
22558;DHT22;11445;53.816;8.902;2023-06-22T13:53:42;24.10;99.90
22558;DHT22;11445;53.816;8.902;2023-06-22T13:56:09;24.00;99.90
22558;DHT22;11445;53.816;8.902;2023-06-22T13:58:35;23.90;99.90
22558;DHT22;11445;53.816;8.902;2023-06-22T14:01:04;23.80;99.90
22558;DHT22;11445;53.816;8.902;2023-06-22T14:03:31;23.80;99.90
22558;DHT22;11445;53.816;8.902;2023-06-22T14:05:57;23.90;99.90
22558;DHT22;11445;53.816;8.902;2023-06-22T14:08:24;24.00;99.90
22558;DHT22;11445;53.816;8.902;2023-06-22T14:10:51;24.00;99.90
22558;DHT22;11445;53.816;8.902;2023-06-22T14:13:19;24.10;99.90
22558;DHT22;11445;53.816;8.902;2023-06-22T14:15:46;24.20;99.90
22558;DHT22;11445;53.816;8.902;2023-06-22T14:18:15;24.30;99.90
22558;DHT22;11445;53.816;8.902;2023-06-22T14:20:42;24.40;99.90
22558;DHT22;11445;53.816;8.902;2023-06-22T14:23:08;24.40;99.90
22558;DHT22;11445;53.816;8.902;2023-06-22T14:25:35;24.40;99.90
22558;DHT22;11445;53.816;8.902;2023-06-22T14:28:02;24.30;99.90
22558;DHT22;11445;53.816;8.902;2023-06-22T14:30:29;24.20;99.90
22558;DHT22;11445;53.816;8.902;2023-06-22T14:32:56;24.20;99.90
22558;DHT22;11445;53.816;8.902;2023-06-22T14:35:24;24.20;99.90
22558;DHT22;11445;53.816;8.902;2023-06-22T14:37:51;24.30;99.90
22558;DHT22;11445;53.816;8.902;2023-06-22T14:40:17;24.30;99.90
22558;DHT22;11445;53.816;8.902;2023-06-22T14:42:44;24.30;99.90
22558;DHT22;11445;53.816;8.902;2023-06-22T14:45:13;24.20;99.90
22558;DHT22;11445;53.816;8.902;2023-06-22T14:47:39;24.20;99.90
22558;DHT22;11445;53.816;8.902;2023-06-22T14:50:07;24.20;99.90
22558;DHT22;11445;53.816;8.902;2023-06-22T14:52:35;24.20;99.90
22558;DHT22;11445;53.816;8.902;2023-06-22T14:55:02;24.20;99.90
22558;DHT22;11445;53.816;8.902;2023-06-22T14:57:29;24.20;99.90
22558;DHT22;11445;53.816;8.902;2023-06-22T14:59:55;24.10;99.90
22558;DHT22;11445;53.816;8.902;2023-06-22T15:02:22;24.10;99.90
22558;DHT22;11445;53.816;8.902;2023-06-22T15:04:49;24.10;99.90
22558;DHT22;11445;53.816;8.902;2023-06-22T15:07:18;24.10;99.90
22558;DHT22;11445;53.816;8.902;2023-06-22T15:09:46;24.10;99.90
22558;DHT22;11445;53.816;8.902;2023-06-22T15:12:13;24.10;99.90
22558;DHT22;11445;53.816;8.902;2023-06-22T15:14:40;24.10;99.90
22558;DHT22;11445;53.816;8.902;2023-06-22T15:17:07;24.10;99.90
22558;DHT22;11445;53.816;8.902;2023-06-22T15:19:35;24.10;99.90
22558;DHT22;11445;53.816;8.902;2023-06-22T15:22:04;24.10;99.90
22558;DHT22;11445;53.816;8.902;2023-06-22T15:24:31;24.10;99.90
22558;DHT22;11445;53.816;8.902;2023-06-22T15:26:59;24.10;99.90
22558;DHT22;11445;53.816;8.902;2023-06-22T15:29:26;24.10;99.90
22558;DHT22;11445;53.816;8.902;2023-06-22T15:31:59;24.10;99.90